createdAt,value
2022-08-07T00:00:07.707Z,8.72
2022-08-07T00:01:12.872Z,8.8
2022-08-07T00:02:35.865Z,9.04
2022-08-07T00:03:08.636Z,9.12
2022-08-07T00:04:09.204Z,9.2
2022-08-07T00:05:08.427Z,9.04
2022-08-07T00:06:08.462Z,8.08
2022-08-07T00:07:09.367Z,7.92
2022-08-07T00:08:08.667Z,8.48
2022-08-07T00:09:16.131Z,8.8
2022-08-07T00:10:25.814Z,8.639999
2022-08-07T00:11:09.090Z,8.8
2022-08-07T00:12:09.224Z,8.48
2022-08-07T00:13:09.977Z,8.72
2022-08-07T00:14:09.496Z,9.52
2022-08-07T00:15:09.579Z,9.36
2022-08-07T00:16:09.687Z,9.28
2022-08-07T00:17:09.781Z,8.24
2022-08-07T00:18:19.046Z,8.88
2022-08-07T00:19:10.052Z,8.72
2022-08-07T00:20:10.197Z,8.639999
2022-08-07T00:21:55.238Z,9.12
2022-08-07T00:22:10.408Z,9.04
2022-08-07T00:23:10.497Z,9.12
2022-08-07T00:24:10.604Z,9.28
2022-08-07T00:25:11.202Z,9.36
2022-08-07T00:26:13.417Z,9.52
2022-08-07T00:27:10.913Z,9.599999
2022-08-07T00:28:11.007Z,9.679999
2022-08-07T00:29:11.118Z,9.599999
2022-08-07T00:30:21.906Z,9.52
2022-08-07T00:31:12.575Z,9.52
2022-08-07T00:32:11.515Z,9.28
2022-08-07T00:33:11.670Z,9.2
2022-08-07T00:34:11.776Z,9.36
2022-08-07T00:35:11.925Z,9.599999
2022-08-07T00:36:12.026Z,9.2
2022-08-07T00:37:12.221Z,9.28
2022-08-07T00:38:13.013Z,9.28
2022-08-07T00:39:12.737Z,8.88
2022-08-07T00:40:12.631Z,8.639999
2022-08-07T00:41:14.531Z,9.12
2022-08-07T00:42:12.838Z,9.36
2022-08-07T00:44:00.081Z,9.36
2022-08-07T00:44:15.088Z,9.36
2022-08-07T00:45:16.353Z,9.28
2022-08-07T00:46:13.322Z,9.12
2022-08-07T00:47:15.557Z,8.88
2022-08-07T00:48:13.658Z,9.12
2022-08-07T00:49:24.578Z,8.48
2022-08-07T00:51:13.863Z,8.88
2022-08-07T00:52:13.952Z,9.12
2022-08-07T00:53:14.106Z,9.12
2022-08-07T00:54:14.222Z,9.12
2022-08-07T00:55:14.365Z,9.12
2022-08-07T00:56:14.511Z,9.12
2022-08-07T00:57:14.618Z,9.2
2022-08-07T00:58:14.749Z,9.28
2022-08-07T00:59:14.819Z,9.04
2022-08-07T01:00:14.919Z,9.04
2022-08-07T01:01:15.190Z,9.12
2022-08-07T01:02:29.000Z,8.72
2022-08-07T01:03:15.335Z,8.72
2022-08-07T01:04:21.809Z,8.8
2022-08-07T01:05:18.719Z,8.8
2022-08-07T01:06:15.731Z,8.8
2022-08-07T01:07:15.782Z,8.88
2022-08-07T01:08:15.882Z,8.8
2022-08-07T01:10:02.340Z,8.8
2022-08-07T01:10:16.149Z,8.48
2022-08-07T01:12:05.265Z,8.4
2022-08-07T01:13:16.622Z,8.8
2022-08-07T01:14:16.845Z,8.72
2022-08-07T01:15:16.964Z,8.72
2022-08-07T01:16:30.147Z,8.88
2022-08-07T01:17:17.057Z,8.48
2022-08-07T01:18:17.584Z,8.48
2022-08-07T01:19:18.640Z,8.72
2022-08-07T01:20:17.543Z,8.639999
2022-08-07T01:21:22.587Z,8.32
2022-08-07T01:22:22.673Z,8.72
2022-08-07T01:23:17.831Z,8.8
2022-08-07T01:24:18.647Z,8.72
2022-08-07T01:25:39.828Z,8.24
2022-08-07T01:26:19.512Z,8.32
2022-08-07T01:27:19.280Z,8.639999
2022-08-07T01:28:18.425Z,8.88
2022-08-07T01:29:18.607Z,8.48
2022-08-07T01:30:18.922Z,8.32
2022-08-07T01:31:18.835Z,8.32
2022-08-07T01:32:18.936Z,8.639999
2022-08-07T01:33:19.036Z,8.72
2022-08-07T01:34:19.524Z,8.8
2022-08-07T01:35:19.292Z,8.639999
2022-08-07T01:36:19.447Z,8.639999
2022-08-07T01:37:20.064Z,8.72
2022-08-07T01:38:25.303Z,8.639999
2022-08-07T01:39:19.836Z,8.48
2022-08-07T01:40:19.947Z,8.639999
2022-08-07T01:41:26.005Z,8.639999
2022-08-07T01:42:37.398Z,8.639999
2022-08-07T01:43:20.367Z,8.72
2022-08-07T01:44:20.468Z,8.08
2022-08-07T01:45:22.846Z,8
2022-08-07T01:46:21.322Z,8.32
2022-08-07T01:48:16.726Z,8.32
2022-08-07T01:49:21.407Z,8.48
2022-08-07T01:50:22.866Z,8.639999
2022-08-07T01:51:24.893Z,8.639999
2022-08-07T01:52:21.377Z,8.48
2022-08-07T01:53:21.655Z,8.48
2022-08-07T01:54:32.443Z,8.48
2022-08-07T01:55:22.107Z,8.48
2022-08-07T01:56:21.830Z,8.24
2022-08-07T01:57:24.687Z,8.48
2022-08-07T01:58:27.585Z,8.72
2022-08-07T01:59:22.159Z,7.84
2022-08-07T02:00:28.802Z,7.6
2022-08-07T02:01:25.780Z,7.92
2022-08-07T02:02:32.424Z,8.08
2022-08-07T02:03:26.591Z,8.24
2022-08-07T02:04:22.752Z,8.32
2022-08-07T02:05:42.928Z,8.32
2022-08-07T02:06:31.103Z,8.4
2022-08-07T02:07:23.053Z,8.32
2022-08-07T02:08:23.760Z,8.24
2022-08-07T02:09:33.694Z,7.68
2022-08-07T02:10:23.420Z,7.52
2022-08-07T02:11:30.656Z,7.6
2022-08-07T02:12:29.132Z,7.28
2022-08-07T02:13:47.061Z,7.2
2022-08-07T02:14:36.447Z,7.12
2022-08-07T02:15:25.490Z,7.2
2022-08-07T02:16:28.492Z,7.2
2022-08-07T02:17:24.950Z,7.28
2022-08-07T02:18:25.948Z,7.52
2022-08-07T02:20:06.052Z,7.84
2022-08-07T02:20:24.726Z,7.92
2022-08-07T02:21:24.782Z,7.92
2022-08-07T02:22:25.686Z,8.08
2022-08-07T02:23:24.987Z,8.24
2022-08-07T02:24:25.133Z,8.08
2022-08-07T02:25:32.282Z,8.24
2022-08-07T02:27:25.506Z,8.32
2022-08-07T02:28:27.110Z,8.24
2022-08-07T02:29:25.701Z,8.24
2022-08-07T02:30:25.803Z,8.08
2022-08-07T02:31:28.371Z,8.08
2022-08-07T02:32:27.044Z,8.24
2022-08-07T02:33:32.969Z,8.32
2022-08-07T02:34:26.320Z,8.32
2022-08-07T02:36:27.644Z,8.24
2022-08-07T02:37:26.874Z,8.32
2022-08-07T02:38:28.052Z,8.24
2022-08-07T02:39:42.674Z,8.24
2022-08-07T02:40:29.758Z,8.24
2022-08-07T02:41:33.251Z,8.32
2022-08-07T02:42:27.372Z,8.32
2022-08-07T02:43:27.473Z,8.32
2022-08-07T02:44:30.307Z,8.4
2022-08-07T02:45:59.614Z,8.32
2022-08-07T02:46:27.889Z,8.24
2022-08-07T02:47:28.030Z,8.24
2022-08-07T02:48:28.301Z,8.24
2022-08-07T02:49:29.022Z,8.24
2022-08-07T02:50:30.820Z,8.24
2022-08-07T02:51:29.130Z,8.24
2022-08-07T02:52:31.090Z,8.24
2022-08-07T02:53:28.760Z,8.08
2022-08-07T02:54:28.919Z,7.68
2022-08-07T02:55:41.974Z,7.84
2022-08-07T02:56:29.156Z,7.28
2022-08-07T02:57:30.893Z,7.04
2022-08-07T02:58:29.491Z,6.88
2022-08-07T02:59:29.557Z,7.04
2022-08-07T03:00:30.102Z,7.44
2022-08-07T03:01:36.214Z,7.52
2022-08-07T03:02:29.964Z,7.6
2022-08-07T03:03:42.333Z,7.68
2022-08-07T03:04:30.225Z,7.84
2022-08-07T03:05:35.821Z,7.84
2022-08-07T03:06:33.003Z,7.28
2022-08-07T03:07:43.002Z,6.8
2022-08-07T03:08:30.784Z,7.28
2022-08-07T03:09:42.467Z,7.6
2022-08-07T03:10:30.983Z,7.68
2022-08-07T03:11:32.597Z,7.84
2022-08-07T03:12:31.340Z,7.68
2022-08-07T03:13:38.966Z,7.68
2022-08-07T03:14:31.435Z,7.6
2022-08-07T03:15:48.052Z,7.6
2022-08-07T03:16:31.692Z,7.28
2022-08-07T03:17:31.842Z,7.28
2022-08-07T03:18:34.430Z,7.2
2022-08-07T03:19:36.840Z,6.72
2022-08-07T03:20:32.148Z,7.2
2022-08-07T03:21:32.928Z,6.88
2022-08-07T03:22:32.402Z,6.88
2022-08-07T03:23:33.532Z,6.88
2022-08-07T03:24:32.741Z,6.48
2022-08-07T03:25:40.250Z,6.8
2022-08-07T03:26:32.908Z,6.4
2022-08-07T03:27:42.103Z,6.32
2022-08-07T03:28:37.955Z,6.8
2022-08-07T03:29:33.677Z,7.2
2022-08-07T03:30:33.466Z,7.28
2022-08-07T03:31:42.198Z,7.04
2022-08-07T03:32:33.772Z,7.28
2022-08-07T03:33:39.993Z,7.44
2022-08-07T03:34:34.023Z,7.28
2022-08-07T03:35:38.076Z,7.2
2022-08-07T03:36:34.247Z,6.88
2022-08-07T03:37:37.543Z,6.24
2022-08-07T03:38:34.495Z,6.24
2022-08-07T03:39:46.732Z,6.4
2022-08-07T03:40:36.418Z,6.88
2022-08-07T03:41:41.914Z,7.12
2022-08-07T03:42:35.054Z,7.28
2022-08-07T03:43:35.959Z,7.28
2022-08-07T03:44:35.256Z,7.2
2022-08-07T03:45:39.736Z,7.28
2022-08-07T03:46:35.555Z,7.12
2022-08-07T03:47:45.214Z,7.2
2022-08-07T03:48:45.267Z,7.04
2022-08-07T03:49:35.962Z,7.12
2022-08-07T03:50:36.060Z,7.2
2022-08-07T03:51:46.842Z,7.28
2022-08-07T03:52:36.320Z,7.04
2022-08-07T03:54:00.844Z,7.28
2022-08-07T03:54:53.817Z,7.04
2022-08-07T03:55:53.220Z,7.2
2022-08-07T03:56:36.790Z,7.28
2022-08-07T03:58:08.955Z,7.44
2022-08-07T03:59:37.171Z,6.88
2022-08-07T04:00:37.390Z,6.72
2022-08-07T04:01:37.465Z,7.44
2022-08-07T04:02:41.229Z,7.2
2022-08-07T04:03:38.967Z,6.8
2022-08-07T04:04:37.845Z,6.88
2022-08-07T04:05:39.313Z,7.2
2022-08-07T04:06:38.690Z,7.28
2022-08-07T04:07:41.781Z,7.12
2022-08-07T04:08:38.240Z,6.88
2022-08-07T04:09:45.042Z,7.04
2022-08-07T04:10:38.713Z,6.88
2022-08-07T04:12:21.582Z,7.04
2022-08-07T04:12:38.656Z,7.04
2022-08-07T04:14:09.678Z,7.04
2022-08-07T04:14:43.995Z,7.44
2022-08-07T04:15:39.241Z,7.52
2022-08-07T04:16:39.109Z,7.68
2022-08-07T04:18:11.203Z,8
2022-08-07T04:19:51.390Z,8.4
2022-08-07T04:20:39.722Z,8.32
2022-08-07T04:21:39.822Z,8.4
2022-08-07T04:22:39.983Z,8.32
2022-08-07T04:23:43.064Z,8.32
2022-08-07T04:24:41.131Z,8.4
2022-08-07T04:25:40.928Z,8.48
2022-08-07T04:26:40.462Z,8
2022-08-07T04:27:44.457Z,7.92
2022-08-07T04:28:40.684Z,7.92
2022-08-07T04:29:49.064Z,8.08
2022-08-07T04:30:44.333Z,8.4
2022-08-07T04:32:02.867Z,8.88
2022-08-07T04:32:44.718Z,9.2
2022-08-07T04:33:41.337Z,9.52
2022-08-07T04:34:41.490Z,9.599999
2022-08-07T04:35:41.595Z,9.92
2022-08-07T04:36:41.699Z,9.92
2022-08-07T04:38:01.338Z,10.24
2022-08-07T04:38:41.915Z,10.48
2022-08-07T04:39:48.027Z,10.4
2022-08-07T04:40:43.992Z,10.719999
2022-08-07T04:41:42.270Z,10.8
2022-08-07T04:42:42.405Z,10.88
2022-08-07T04:44:10.839Z,10.88
2022-08-07T04:44:54.830Z,10.88
2022-08-07T04:45:44.708Z,10.88
2022-08-07T04:46:59.882Z,11.12
2022-08-07T04:47:57.582Z,11.2
2022-08-07T04:48:44.590Z,11.12
2022-08-07T04:49:47.556Z,11.52
2022-08-07T04:50:43.334Z,11.44
2022-08-07T04:51:43.427Z,11.84
2022-08-07T04:52:46.868Z,11.599999
2022-08-07T04:54:01.290Z,11.84
2022-08-07T04:54:44.826Z,12.08
2022-08-07T04:58:08.909Z,12
2022-08-07T05:00:08.369Z,12.24
2022-08-07T05:00:44.702Z,12.4
2022-08-07T05:01:44.856Z,12.4
2022-08-07T05:02:45.034Z,12.24
2022-08-07T05:04:00.772Z,12.4
2022-08-07T05:04:47.365Z,12.4
2022-08-07T05:05:51.657Z,12.88
2022-08-07T05:06:51.387Z,12.719999
2022-08-07T05:07:48.114Z,13.04
2022-08-07T05:09:00.384Z,13.12
2022-08-07T05:09:46.934Z,13.04
2022-08-07T05:10:46.060Z,13.52
2022-08-07T05:11:57.875Z,13.679999
2022-08-07T05:12:51.829Z,13.599999
2022-08-07T05:14:45.468Z,13.52
2022-08-07T05:15:46.631Z,13.2
2022-08-07T05:16:46.776Z,13.84
2022-08-07T05:17:50.581Z,14.08
2022-08-07T05:18:46.983Z,14.4
2022-08-07T05:19:47.077Z,14.639999
2022-08-07T05:20:47.231Z,14.48
2022-08-07T05:21:59.609Z,14.32
2022-08-07T05:22:47.649Z,14.48
2022-08-07T05:23:47.593Z,14.719999
2022-08-07T05:24:47.772Z,14.88
2022-08-07T05:26:10.363Z,15.04
2022-08-07T05:26:47.961Z,15.2
2022-08-07T05:28:02.268Z,15.28
2022-08-07T05:28:48.686Z,15.52
2022-08-07T05:29:51.351Z,15.679999
2022-08-07T05:30:48.450Z,15.28
2022-08-07T05:31:51.086Z,15.12
2022-08-07T05:32:48.713Z,15.44
2022-08-07T05:33:51.470Z,15.52
2022-08-07T05:34:48.976Z,15.599999
2022-08-07T05:35:49.111Z,15.839999
2022-08-07T05:36:49.318Z,15.92
2022-08-07T05:37:49.978Z,16.24
2022-08-07T05:38:58.591Z,16.24
2022-08-07T05:40:05.186Z,16.32
2022-08-07T05:40:50.802Z,16.32
2022-08-07T05:42:01.012Z,16.4
2022-08-07T05:42:54.802Z,16.64
2022-08-07T05:44:07.861Z,17.12
2022-08-07T05:44:52.846Z,16.88
2022-08-07T05:45:50.349Z,17.12
2022-08-07T05:46:51.089Z,17.6
2022-08-07T05:48:02.251Z,17.2
2022-08-07T05:48:58.528Z,16.88
2022-08-07T05:49:50.839Z,17.04
2022-08-07T05:50:50.950Z,17.28
2022-08-07T05:51:51.046Z,17.28
2022-08-07T05:52:51.200Z,17.28
2022-08-07T05:54:08.872Z,17.6
2022-08-07T05:54:53.907Z,17.6
2022-08-07T05:56:01.801Z,18.24
2022-08-07T05:56:51.656Z,18.08
2022-08-07T05:57:51.810Z,18
2022-08-07T05:58:52.914Z,18.24
2022-08-07T05:59:56.301Z,18
2022-08-07T06:00:52.215Z,17.92
2022-08-07T06:01:52.410Z,17.68
2022-08-07T06:02:52.460Z,17.76
2022-08-07T06:03:54.085Z,18.08
2022-08-07T06:04:52.767Z,18.4
2022-08-07T06:05:56.454Z,18.88
2022-08-07T06:06:56.331Z,18.64
2022-08-07T06:08:09.040Z,18.88
2022-08-07T06:08:53.235Z,18.8
2022-08-07T06:10:04.947Z,19.2
2022-08-07T06:10:54.832Z,20
2022-08-07T06:11:53.537Z,19.2
2022-08-07T06:12:53.781Z,19.2
2022-08-07T06:14:11.081Z,19.2
2022-08-07T06:14:53.940Z,19.6
2022-08-07T06:15:54.054Z,20
2022-08-07T06:16:56.086Z,19.92
2022-08-07T06:17:54.952Z,20.4
2022-08-07T06:18:55.875Z,20.48
2022-08-07T06:19:58.163Z,20.64
2022-08-07T06:22:11.487Z,20.64
2022-08-07T06:23:01.683Z,21.28
2022-08-07T06:24:37.052Z,21.04
2022-08-07T06:24:56.949Z,20.8
2022-08-07T06:25:56.891Z,20.4
2022-08-07T06:26:55.493Z,21.12
2022-08-07T06:28:00.763Z,21.6
2022-08-07T06:28:55.735Z,21.68
2022-08-07T06:29:55.867Z,21.44
2022-08-07T06:30:55.976Z,21.2
2022-08-07T06:31:56.073Z,21.52
2022-08-07T06:32:56.218Z,21.44
2022-08-07T06:33:56.325Z,22.64
2022-08-07T06:34:56.479Z,23.68
2022-08-07T06:36:07.002Z,23.2
2022-08-07T06:36:56.745Z,23.12
2022-08-07T06:37:56.882Z,23.44
2022-08-07T06:38:59.751Z,23.2
2022-08-07T06:40:57.236Z,23.6
2022-08-07T06:42:01.303Z,23.6
2022-08-07T06:42:57.446Z,24.48
2022-08-07T06:43:59.339Z,23.84
2022-08-07T06:44:57.695Z,24.4
2022-08-07T06:46:00.915Z,23.68
2022-08-07T06:47:00.169Z,23.6
2022-08-07T06:47:58.890Z,24
2022-08-07T06:48:58.208Z,24.32
2022-08-07T06:49:58.934Z,24.32
2022-08-07T06:50:58.453Z,24.48
2022-08-07T06:51:59.581Z,24.4
2022-08-07T06:52:58.712Z,24
2022-08-07T06:54:12.464Z,24.88
2022-08-07T06:56:00.247Z,25.04
2022-08-07T06:56:59.169Z,23.6
2022-08-07T06:57:59.663Z,23.2
2022-08-07T07:00:10.719Z,24.32
2022-08-07T07:00:59.628Z,25.84
2022-08-07T07:01:59.758Z,25.6
2022-08-07T07:03:01.075Z,25.44
2022-08-07T07:04:08.330Z,26.32
2022-08-07T07:05:00.136Z,26
2022-08-07T07:06:02.319Z,25.6
2022-08-07T07:07:01.649Z,25.12
2022-08-07T07:08:06.338Z,24.88
2022-08-07T07:09:00.540Z,25.28
2022-08-07T07:10:00.645Z,26
2022-08-07T07:11:00.809Z,26.72
2022-08-07T07:12:07.293Z,25.68
2022-08-07T07:13:00.997Z,26
2022-08-07T07:14:01.638Z,25.84
2022-08-07T07:15:01.256Z,27.2
2022-08-07T07:16:01.751Z,27.28
2022-08-07T07:17:01.508Z,26
2022-08-07T07:18:01.672Z,26.64
2022-08-07T07:19:04.230Z,26.4
2022-08-07T07:20:01.919Z,25.6
2022-08-07T07:21:02.017Z,25.44
2022-08-07T07:22:05.563Z,25.44
2022-08-07T07:24:05.763Z,25.84
2022-08-07T07:25:14.380Z,24.88
2022-08-07T07:27:02.729Z,23.6
2022-08-07T07:28:03.853Z,24.08
2022-08-07T07:29:38.759Z,24.48
2022-08-07T07:30:10.182Z,25.44
2022-08-07T07:31:03.239Z,24.24
2022-08-07T07:32:03.387Z,25.12
2022-08-07T07:33:03.492Z,25.68
2022-08-07T07:34:03.665Z,25.84
2022-08-07T07:35:03.941Z,26.24
2022-08-07T07:36:05.151Z,26
2022-08-07T07:37:05.671Z,24.8
2022-08-07T07:38:04.927Z,25.44
2022-08-07T07:39:04.409Z,24.08
2022-08-07T07:40:10.495Z,23.2
2022-08-07T07:41:04.605Z,24.08
2022-08-07T07:42:09.157Z,25.44
2022-08-07T07:43:06.286Z,26.32
2022-08-07T07:44:14.076Z,26.4
2022-08-07T07:45:05.112Z,26.32
2022-08-07T07:46:36.165Z,26.4
2022-08-07T07:47:13.646Z,25.04
2022-08-07T07:48:05.424Z,24.24
2022-08-07T07:49:09.020Z,25.04
2022-08-07T07:51:07.668Z,26.32
2022-08-07T07:52:05.923Z,26.08
2022-08-07T07:53:06.054Z,25.52
2022-08-07T07:54:06.201Z,25.52
2022-08-07T07:55:06.286Z,24.72
2022-08-07T07:56:06.410Z,24.64
2022-08-07T07:57:06.485Z,24
2022-08-07T07:58:06.590Z,24
2022-08-07T07:59:06.696Z,23.92
2022-08-07T08:00:06.844Z,25.52
2022-08-07T08:02:01.213Z,26.4
2022-08-07T08:02:10.436Z,25.2
2022-08-07T08:03:07.296Z,24.8
2022-08-07T08:04:11.165Z,24.24
2022-08-07T08:05:11.451Z,24
2022-08-07T08:06:07.605Z,24.24
2022-08-07T08:07:07.807Z,24.08
2022-08-07T08:08:07.858Z,25.04
2022-08-07T08:09:08.023Z,24.72
2022-08-07T08:10:08.064Z,24.08
2022-08-07T08:11:09.172Z,23.92
2022-08-07T08:12:08.261Z,24.32
2022-08-07T08:13:10.420Z,24
2022-08-07T08:14:08.479Z,24.4
2022-08-07T08:15:08.626Z,25.12
2022-08-07T08:16:08.736Z,24.64
2022-08-07T08:17:14.163Z,23.84
2022-08-07T08:18:17.233Z,23.68
2022-08-07T08:19:10.051Z,24.4
2022-08-07T08:20:16.853Z,25.68
2022-08-07T08:21:09.381Z,26.24
2022-08-07T08:22:09.720Z,25.92
2022-08-07T08:23:09.602Z,24.08
2022-08-07T08:24:10.439Z,24.64
2022-08-07T08:25:19.003Z,24.48
2022-08-07T08:26:09.998Z,26.32
2022-08-07T08:27:10.091Z,26.88
2022-08-07T08:28:10.224Z,24.72
2022-08-07T08:29:10.360Z,23.92
2022-08-07T08:30:11.420Z,24.24
2022-08-07T08:31:14.747Z,24
2022-08-07T08:32:17.661Z,24.4
2022-08-07T08:33:15.370Z,24
2022-08-07T08:34:12.367Z,26.08
2022-08-07T08:35:11.065Z,26.88
2022-08-07T08:36:11.211Z,26.88
2022-08-07T08:37:59.080Z,26
2022-08-07T08:38:11.625Z,27.04
2022-08-07T08:39:11.629Z,26.8
2022-08-07T08:40:12.291Z,26.48
2022-08-07T08:41:11.956Z,26.32
2022-08-07T08:42:12.029Z,28.72
2022-08-07T08:43:12.166Z,29.44
2022-08-07T08:44:12.279Z,29.28
2022-08-07T08:45:13.132Z,27.52
2022-08-07T08:46:12.533Z,25.12
2022-08-07T08:47:12.662Z,24.32
2022-08-07T08:48:12.736Z,24.64
2022-08-07T08:49:12.839Z,24.64
2022-08-07T08:50:16.302Z,24.4
2022-08-07T08:51:14.196Z,25.84
2022-08-07T08:52:16.613Z,25.52
2022-08-07T08:53:13.393Z,27.12
2022-08-07T08:54:13.548Z,25.6
2022-08-07T08:55:20.738Z,26.88
2022-08-07T08:56:13.803Z,27.44
2022-08-07T08:57:13.954Z,28.32
2022-08-07T08:58:20.496Z,26.32
2022-08-07T08:59:14.170Z,26.32
2022-08-07T09:00:14.278Z,26.88
2022-08-07T09:01:14.872Z,26.64
2022-08-07T09:02:14.556Z,25.92
2022-08-07T09:03:14.618Z,28
2022-08-07T09:04:14.769Z,28.08
2022-08-07T09:05:14.906Z,28.32
2022-08-07T09:06:15.018Z,28.72
2022-08-07T09:07:15.155Z,28.08
2022-08-07T09:08:17.949Z,28.08
2022-08-07T09:09:20.845Z,28.24
2022-08-07T09:10:15.527Z,29.04
2022-08-07T09:11:24.130Z,27.92
2022-08-07T09:12:19.912Z,28.48
2022-08-07T09:13:15.886Z,29.84
2022-08-07T09:14:15.999Z,30.64
2022-08-07T09:16:20.911Z,30
2022-08-07T09:17:16.345Z,28.32
2022-08-07T09:18:19.308Z,26.8
2022-08-07T09:19:52.542Z,27.92
2022-08-07T09:20:26.737Z,30.8
2022-08-07T09:21:33.706Z,28.32
2022-08-07T09:22:23.266Z,27.84
2022-08-07T09:25:18.217Z,26.88
2022-08-07T09:26:17.611Z,27.68
2022-08-07T09:27:17.748Z,27.6
2022-08-07T09:30:02.957Z,27.04
2022-08-07T09:30:18.067Z,30.4
2022-08-07T09:31:18.178Z,29.52
2022-08-07T09:32:18.743Z,28.8
2022-08-07T09:33:24.601Z,26.72
2022-08-07T09:34:18.633Z,27.28
2022-08-07T09:36:01.618Z,27.2
2022-08-07T09:36:18.888Z,27.84
2022-08-07T09:37:18.982Z,26.88
2022-08-07T09:38:19.086Z,26.24
2022-08-07T09:39:53.508Z,26.24
2022-08-07T09:40:19.328Z,25.28
2022-08-07T09:41:19.388Z,25.12
2022-08-07T09:42:22.878Z,24.48
2022-08-07T09:43:19.641Z,24.4
2022-08-07T09:44:30.160Z,24.08
2022-08-07T09:47:20.337Z,25.04
2022-08-07T09:48:20.749Z,27.44
2022-08-07T09:50:00.315Z,27.28
2022-08-07T09:50:20.562Z,26.08
2022-08-07T09:52:09.612Z,26.8
2022-08-07T09:52:33.916Z,27.12
2022-08-07T09:53:20.925Z,26.32
2022-08-07T09:54:21.015Z,26.24
2022-08-07T09:55:29.137Z,26
2022-08-07T09:56:33.949Z,27.92
2022-08-07T09:57:21.445Z,27.84
2022-08-07T09:58:21.475Z,26.48
2022-08-07T09:59:22.106Z,28.24
2022-08-07T10:00:24.304Z,29.28
2022-08-07T10:01:50.871Z,28.08
2022-08-07T10:02:23.236Z,27.2
2022-08-07T10:04:04.519Z,29.28
2022-08-07T10:04:28.458Z,29.6
2022-08-07T10:05:29.855Z,29.44
2022-08-07T10:06:24.421Z,29.52
2022-08-07T10:07:24.127Z,30.48
2022-08-07T10:08:22.573Z,30.64
2022-08-07T10:09:23.564Z,29.84
2022-08-07T10:10:22.957Z,31.04
2022-08-07T10:12:00.687Z,31.44
2022-08-07T10:12:26.228Z,30.24
2022-08-07T10:13:29.941Z,29.44
2022-08-07T10:14:23.304Z,31.68
2022-08-07T10:15:23.402Z,29.52
2022-08-07T10:16:23.551Z,28.72
2022-08-07T10:17:23.658Z,29.04
2022-08-07T10:18:26.489Z,28
2022-08-07T10:19:23.925Z,28.88
2022-08-07T10:20:30.348Z,28.08
2022-08-07T10:21:50.962Z,29.52
2022-08-07T10:22:24.807Z,30.8
2022-08-07T10:24:04.438Z,31.52
2022-08-07T10:24:24.531Z,30.32
2022-08-07T10:25:24.623Z,30.88
2022-08-07T10:26:25.259Z,32.4
2022-08-07T10:27:24.888Z,32.48
2022-08-07T10:28:25.032Z,33.68
2022-08-07T10:29:25.141Z,33.92
2022-08-07T10:30:26.475Z,33.28
2022-08-07T10:31:25.384Z,31.92
2022-08-07T10:32:37.237Z,32.24
2022-08-07T10:33:30.803Z,32.24
2022-08-07T10:34:27.420Z,33.44
2022-08-07T10:35:25.981Z,31.92
2022-08-07T10:36:29.545Z,30.64
2022-08-07T10:37:26.426Z,31.04
2022-08-07T10:38:36.402Z,31.6
2022-08-07T10:39:41.151Z,32.48
2022-08-07T10:40:29.986Z,29.52
2022-08-07T10:41:47.713Z,27.68
2022-08-07T10:42:30.880Z,28
2022-08-07T10:43:29.777Z,29.2
2022-08-07T10:44:28.547Z,31.44
2022-08-07T10:45:44.194Z,31.92
2022-08-07T10:46:27.272Z,31.68
2022-08-07T10:47:31.309Z,30.24
2022-08-07T10:48:34.781Z,27.92
2022-08-07T10:49:45.518Z,27.28
2022-08-07T10:50:27.722Z,28
2022-08-07T10:51:39.021Z,27.6
2022-08-07T10:52:31.629Z,29.28
2022-08-07T10:53:28.079Z,28.88
2022-08-07T10:54:28.231Z,27.12
2022-08-07T10:55:37.122Z,27.28
2022-08-07T10:56:30.998Z,30.24
2022-08-07T10:57:34.205Z,29.92
2022-08-07T10:58:32.154Z,27.2
2022-08-07T10:59:30.272Z,27.28
2022-08-07T11:00:37.064Z,30
2022-08-07T11:01:35.405Z,29.84
2022-08-07T11:02:33.691Z,30.88
2022-08-07T11:03:37.061Z,31.44
2022-08-07T11:04:31.782Z,29.84
2022-08-07T11:05:36.017Z,31.68
2022-08-07T11:06:29.659Z,31.2
2022-08-07T11:07:56.772Z,33.68
2022-08-07T11:08:30.398Z,34.32
2022-08-07T11:10:08.132Z,32.8
2022-08-07T11:10:30.160Z,32
2022-08-07T11:11:30.259Z,30.4
2022-08-07T11:12:31.881Z,30
2022-08-07T11:13:42.569Z,27.92
2022-08-07T11:15:31.704Z,29.2
2022-08-07T11:16:30.950Z,29.92
2022-08-07T11:17:42.990Z,29.2
2022-08-07T11:18:31.078Z,29.84
2022-08-07T11:19:31.995Z,28.48
2022-08-07T11:20:31.347Z,29.84
2022-08-07T11:21:31.858Z,31.52
2022-08-07T11:22:32.272Z,30.8
2022-08-07T11:23:36.665Z,30.64
2022-08-07T11:24:31.837Z,29.92
2022-08-07T11:25:36.039Z,29.52
2022-08-07T11:26:32.091Z,28.24
2022-08-07T11:27:33.408Z,29.44
2022-08-07T11:28:32.351Z,27.92
2022-08-07T11:29:41.639Z,27.44
2022-08-07T11:30:39.253Z,27.68
2022-08-07T11:31:33.389Z,27.68
2022-08-07T11:32:32.801Z,28.8
2022-08-07T11:33:48.666Z,28.8
2022-08-07T11:34:33.007Z,26.64
2022-08-07T11:35:33.114Z,25.68
2022-08-07T11:36:33.209Z,25.52
2022-08-07T11:37:38.244Z,25.44
2022-08-07T11:38:33.471Z,24.24
2022-08-07T11:39:39.970Z,23.68
2022-08-07T11:40:33.726Z,24.24
2022-08-07T11:42:00.643Z,24.4
2022-08-07T11:42:33.938Z,24.88
2022-08-07T11:43:41.433Z,25.04
2022-08-07T11:44:34.425Z,25.6
2022-08-07T11:45:35.354Z,26.64
2022-08-07T11:46:36.821Z,26.4
2022-08-07T11:47:38.741Z,25.6
2022-08-07T11:48:35.349Z,27.12
2022-08-07T11:49:50.918Z,27.52
2022-08-07T11:50:34.989Z,27.2
2022-08-07T11:51:42.063Z,27.92
2022-08-07T11:52:35.461Z,28.64
2022-08-07T11:53:35.566Z,29.28
2022-08-07T11:54:35.543Z,27.92
2022-08-07T11:56:09.809Z,28.08
2022-08-07T11:56:35.850Z,27.12
2022-08-07T11:57:52.378Z,28.24
2022-08-07T11:58:36.158Z,28.4
2022-08-07T12:00:08.613Z,28.08
2022-08-07T12:00:36.407Z,29.6
2022-08-07T12:01:58.903Z,28.8
2022-08-07T12:02:36.751Z,29.6
2022-08-07T12:03:42.462Z,29.44
2022-08-07T12:04:36.872Z,30.4
2022-08-07T12:05:41.563Z,28.88
2022-08-07T12:06:40.125Z,27.84
2022-08-07T12:07:38.670Z,29.52
2022-08-07T12:08:37.268Z,29.84
2022-08-07T12:09:37.403Z,29.44
2022-08-07T12:10:37.480Z,29.44
2022-08-07T12:11:43.186Z,29.68
2022-08-07T12:12:37.729Z,32.24
2022-08-07T12:13:40.030Z,33.68
2022-08-07T12:14:38.308Z,32.72
2022-08-07T12:15:46.374Z,33.04
2022-08-07T12:16:38.195Z,32.88
2022-08-07T12:17:38.708Z,32.08
2022-08-07T12:18:38.439Z,31.2
2022-08-07T12:19:57.017Z,32.88
2022-08-07T12:20:38.703Z,32.72
2022-08-07T12:21:55.408Z,31.44
2022-08-07T12:22:47.127Z,30.64
2022-08-07T12:24:06.436Z,30.4
2022-08-07T12:24:40.097Z,29.12
2022-08-07T12:26:01.011Z,29.04
2022-08-07T12:26:40.714Z,29.28
2022-08-07T12:28:04.174Z,30.08
2022-08-07T12:28:39.666Z,31.12
2022-08-07T12:29:40.288Z,32
2022-08-07T12:30:40.335Z,31.2
2022-08-07T12:31:53.421Z,31.12
2022-08-07T12:32:40.142Z,31.2
2022-08-07T12:33:55.931Z,31.52
2022-08-07T12:34:40.423Z,31.44
2022-08-07T12:35:40.522Z,31.84
2022-08-07T12:36:40.673Z,32.24
2022-08-07T12:38:08.857Z,31.2
2022-08-07T12:38:43.205Z,30.88
2022-08-07T12:39:43.506Z,30.24
2022-08-07T12:40:48.063Z,29.68
2022-08-07T12:41:42.707Z,27.92
2022-08-07T12:42:41.437Z,28.8
2022-08-07T12:43:50.874Z,29.44
2022-08-07T12:44:42.963Z,29.2
2022-08-07T12:45:41.842Z,28.64
2022-08-07T12:46:41.969Z,28.32
2022-08-07T12:47:42.046Z,27.92
2022-08-07T12:48:52.282Z,29.04
2022-08-07T12:49:48.698Z,27.68
2022-08-07T12:50:48.780Z,28.64
2022-08-07T12:51:46.849Z,28.4
2022-08-07T12:52:42.655Z,28.4
2022-08-07T12:54:02.511Z,27.04
2022-08-07T12:54:42.910Z,26.88
2022-08-07T12:56:02.166Z,27.84
2022-08-07T12:56:43.166Z,27.2
2022-08-07T12:58:00.600Z,28.32
2022-08-07T12:58:43.948Z,29.28
2022-08-07T12:59:54.143Z,30.32
2022-08-07T13:00:49.852Z,30.32
2022-08-07T13:01:43.831Z,30
2022-08-07T13:02:43.878Z,28.72
2022-08-07T13:03:53.674Z,30.08
2022-08-07T13:04:49.020Z,30
2022-08-07T13:06:02.303Z,30.48
2022-08-07T13:06:54.152Z,31.44
2022-08-07T13:08:13.115Z,31.6
2022-08-07T13:08:44.550Z,30.72
2022-08-07T13:10:22.218Z,29.52
2022-08-07T13:10:51.492Z,29.84
2022-08-07T13:12:02.900Z,29.84
2022-08-07T13:12:47.525Z,30.24
2022-08-07T13:13:46.627Z,30.88
2022-08-07T13:14:46.921Z,30.24
2022-08-07T13:15:45.395Z,29.92
2022-08-07T13:16:46.801Z,30.08
2022-08-07T13:17:45.767Z,28.72
2022-08-07T13:18:49.054Z,29.28
2022-08-07T13:19:51.043Z,29.84
2022-08-07T13:20:46.011Z,29.68
2022-08-07T13:21:51.820Z,29.84
2022-08-07T13:22:52.423Z,27.92
2022-08-07T13:24:00.453Z,29.2
2022-08-07T13:24:52.335Z,29.68
2022-08-07T13:25:50.653Z,29.92
2022-08-07T13:26:46.721Z,30.88
2022-08-07T13:28:06.233Z,31.92
2022-08-07T13:28:46.978Z,30.88
2022-08-07T13:29:47.759Z,31.12
2022-08-07T13:30:48.793Z,31.28
2022-08-07T13:31:54.875Z,31.6